• Join FlightAware (Why Join?)
  • Login
  • US Flag 
12:00PM EDT


 

Airport Tracker/Info


-or-


 

Live Flight TrackerFlight Track Log ✈ SKW6477 ✈ 14-May-2013 ✈ KCLE - KMSY

Flight Track Log - Related Links

Times and Time Zones

All times are in EDT time to prevent confusion due to time zone crossing. See the SKW6477 flight status page for this flight to view local times or setup timezone preferences in your user account.

Time Position Orientation Groundspeed Altitude Reporting Facility
EDT Latitude Longitude Course Direction KTS MPH feet Rate Location/Type
09:00AM 41.3939 -81.8839 246° West 161 185 1,900  Level Cleveland Center
09:02AM 41.3764 -81.9583 253° West 210 242 4,300 2,160 Climbing Cleveland Center
09:02AM 41.3653 -82.0025 251° West 226 260 5,800 2,520 Climbing Cleveland Center
09:03AM 41.3544 -82.0408 249° West 249 287 6,900 2,700 Climbing Cleveland Center
09:03AM 41.3392 -82.0875 246° West 254 292 8,500 2,280 Climbing Cleveland Center
09:04AM 41.3108 -82.1781 247° West 260 299 10,500 1,860 Climbing Cleveland Center
09:05AM 41.1086 -82.7106 244° Southwest  Level FlightAware Approximate
09:05AM 41.2781 -82.2825 247° West 282 325 12,300  Level Cleveland Center
09:06AM 41.0788 -82.8635 246° West  Level FlightAware Approximate
09:06AM 41.2453 -82.3864 247° West 313 360 14,600  Level Cleveland Center
09:07AM 41.2144 -82.4822 247° West 313 360 15,800 1,380 Climbing Cleveland Center
09:08AM 41.1711 -82.5858 241° Southwest 320 368 17,400 1,080 Climbing Cleveland Center
09:09AM 41.1233 -82.6944 240° Southwest 335 386 18,000 600 Climbing Cleveland Center
09:10AM 41.0961 -82.8122 253° West 343 395 18,700 900 Climbing Cleveland Center
09:11AM 41.0747 -82.9356 257° West 343 395 19,800 1,200 Climbing Cleveland Center
09:12AM 41.0575 -83.0586 260° West 338 389 21,100 1,020 Climbing Cleveland Center
09:14AM 41.0189 -83.3350 260° West 352 405 23,100 840 Climbing Indianapolis Center
09:15AM 40.9994 -83.4647 259° West 356 410 24,000 720 Climbing Indianapolis Center
09:17AM 40.9783 -83.5989 258° West 355 409 24,700 600 Climbing Indianapolis Center
09:18AM 40.9575 -83.7308 258° West 364 419 25,300 480 Climbing Indianapolis Center
09:19AM 40.8697 -83.8331 221° Southwest 419 482 25,700 420 Climbing Indianapolis Center
09:20AM 40.7536 -83.9411 215° Southwest 434 499 26,200 420 Climbing Indianapolis Center
09:21AM 40.6519 -84.0339 215° Southwest 440 506 26,600 360 Climbing Indianapolis Center
09:22AM 40.5472 -84.1289 215° Southwest 453 521 27,000 480 Climbing Indianapolis Center
09:23AM 40.4431 -84.2253 215° Southwest 454 522 27,600 600 Climbing Indianapolis Center
09:24AM 40.3381 -84.3183 214° Southwest 455 524 28,300 600 Climbing Indianapolis Center
09:25AM 40.2344 -84.4111 214° Southwest 450 518 28,900 300 Climbing Indianapolis Center
09:26AM 40.1131 -84.5211 215° Southwest 454 522 29,000  Climbing Indianapolis Center
09:27AM 40.0067 -84.6164 214° Southwest 460 529 29,000 120 Level Indianapolis Center
09:28AM 39.9000 -84.7111 214° Southwest 461 531 29,300 360 Climbing Indianapolis Center
09:29AM 39.7953 -84.8031 214° Southwest 453 521 29,800 480 Climbing Indianapolis Center
09:30AM 39.6842 -84.8853 210° Southwest 455 524 30,300 480 Climbing Indianapolis Center
09:31AM 39.5678 -84.9561 205° Southwest 459 528 30,900 540 Climbing Indianapolis Center
09:32AM 39.4308 -85.0369 205° Southwest 459 528 31,500 480 Climbing Indianapolis Center
09:33AM 39.3178 -85.1058 205° Southwest 452 520 32,000 240 Climbing Indianapolis Center
09:34AM 39.1997 -85.1731 204° Southwest 455 524 32,000  Level Indianapolis Center
09:35AM 39.0942 -85.2356 205° Southwest 463 533 32,000  Level Indianapolis Center
09:36AM 38.9497 -85.3189 204° Southwest 470 541 32,000  Level Indianapolis Center
09:37AM 38.8286 -85.3900 205° Southwest 475 547 32,000  Level Indianapolis Center
09:38AM 38.7083 -85.4594 204° Southwest 472 543 32,000  Level Indianapolis Center
09:39AM 38.5861 -85.5294 204° Southwest 477 549 32,000  Level Indianapolis Center
09:40AM 38.4650 -85.6000 205° Southwest 474 545 32,000  Level Indianapolis Center
09:41AM 38.3436 -85.6689 204° Southwest 475 547 32,000  Level Indianapolis Center
09:42AM 38.2242 -85.7375 204° Southwest 468 539 32,000  Level Indianapolis Center
09:43AM 38.1058 -85.8028 203° Southwest 461 531 32,000  Level Indianapolis Center
09:44AM 37.9658 -85.8825 204° Southwest 456 525 32,000  Level Indianapolis Center
09:45AM 37.8517 -85.9475 204° Southwest 448 516 32,000  Level Indianapolis Center
09:47AM 37.7369 -86.0106 203° Southwest 446 513 32,000  Level Indianapolis Center
09:48AM 37.6228 -86.0742 204° Southwest 445 512 32,000  Level Indianapolis Center
09:49AM 37.5083 -86.1386 204° Southwest 439 505 32,000  Level Indianapolis Center
09:49AM 37.4344 -86.1806 204° Southwest 439 505 32,000  Level Memphis Center
09:50AM 37.3117 -86.2497 204° Southwest 444 511 32,000  Level Memphis Center
09:51AM 37.2014 -86.3100 204° Southwest 450 518 32,000  Level Memphis Center
09:52AM 37.0908 -86.3731 204° Southwest 443 510 32,000  Level Memphis Center
09:53AM 36.9803 -86.4331 203° Southwest 443 510 32,000  Level Memphis Center
09:54AM 36.8675 -86.4931 203° Southwest 443 510 32,000  Level Memphis Center
09:55AM 36.7567 -86.5528 203° Southwest 438 504 32,000  Level Memphis Center
09:56AM 36.6481 -86.6122 204° Southwest 433 498 32,000  Level Memphis Center
09:57AM 36.5375 -86.6714 203° Southwest 433 498 32,000  Level Memphis Center
09:58AM 36.4369 -86.7250 203° Southwest 432 497 32,000  Level Memphis Center
09:59AM 36.3219 -86.7894 204° Southwest 438 504 32,000  Level Memphis Center
10:00AM 36.1944 -86.8542 202° Southwest 451 519 32,000  Level Memphis Center
10:01AM 36.0858 -86.9153 204° Southwest 449 517 32,000  Level Memphis Center
10:02AM 35.9769 -86.9739 204° Southwest 439 505 32,000  Level Memphis Center
10:03AM 35.8681 -87.0347 204° Southwest 434 499 32,000  Level Memphis Center
10:04AM 35.7569 -87.0928 203° Southwest 440 506 32,000  Level Memphis Center
10:05AM 35.6458 -87.1508 203° Southwest 435 501 32,000  Level Memphis Center
10:06AM 35.5347 -87.2114 204° Southwest 435 501 32,000  Level Memphis Center
10:07AM 35.4358 -87.2608 202° Southwest 435 501 32,000  Level Memphis Center
10:08AM 35.3289 -87.3183 204° Southwest 429 494 32,000  Level Memphis Center
10:09AM 35.2197 -87.3758 203° Southwest 429 494 32,000  Level Memphis Center
10:10AM 35.1064 -87.4356 203° Southwest 434 499 32,000  Level Memphis Center
10:11AM 34.9950 -87.4900 202° Southwest 434 499 32,000  Level Memphis Center
10:12AM 34.8858 -87.5469 203° Southwest 428 493 32,000  Level Memphis Center
10:13AM 34.7703 -87.6064 203° Southwest 421 484 32,000  Level Memphis Center
10:14AM 34.6589 -87.6606 202° Southwest 426 490 32,000  Level Memphis Center
10:15AM 34.5494 -87.7169 203° Southwest 434 499 32,000  Level Memphis Center
10:16AM 34.4400 -87.7733 203° Southwest 429 494 32,000  Level Memphis Center
10:17AM 34.3431 -87.8242 203° Southwest 430 495 32,000  Level Memphis Center
10:18AM 34.2294 -87.8803 202° Southwest 430 495 32,000  Level Memphis Center
10:19AM 34.1219 -87.9358 203° Southwest 430 495 32,000  Level Memphis Center
10:20AM 34.0125 -87.9917 203° Southwest 430 495 32,000  Level Memphis Center
10:21AM 33.9008 -88.0472 202° Southwest 430 495 32,000  Level Memphis Center
10:22AM 33.7911 -88.1078 205° Southwest 438 504 32,000  Level Memphis Center
10:23AM 33.6817 -88.1631 203° Southwest 438 504 32,000  Level Memphis Center
10:24AM 33.5739 -88.2156 202° Southwest 432 497 32,000  Level Memphis Center
10:25AM 33.4603 -88.2756 204° Southwest 422 486 32,000  Level Memphis Center
10:26AM 33.3464 -88.3306 202° Southwest 422 486 32,000  Level Memphis Center
10:27AM 33.2428 -88.3850 204° Southwest 427 491 32,000  Level Memphis Center
10:28AM 33.1331 -88.4372 202° Southwest 427 491 32,000  Level Memphis Center
10:29AM 33.0231 -88.4892 202° Southwest 427 491 32,000  Level Memphis Center
10:30AM 32.9133 -88.5433 203° Southwest 427 491 32,000  Level Memphis Center
10:31AM 32.8078 -88.5975 203° Southwest 427 491 32,000  Level Memphis Center
10:32AM 32.6997 -88.6489 202° Southwest 427 491 32,000  Level Memphis Center
10:33AM 32.5919 -88.7003 202° Southwest 427 491 32,000  Level Memphis Center
10:34AM 32.4842 -88.7517 202° Southwest 427 491 32,000  Level Memphis Center
10:35AM 32.3825 -88.8075 205° Southwest 422 486 32,000 -120 Level Memphis Center
10:36AM 32.2894 -88.8903 217° Southwest 417 480 31,800 -600 Descending Memphis Center
10:37AM 32.1967 -88.9825 220° Southwest 422 486 30,900 -900 Descending Memphis Center
10:38AM 32.1017 -89.0747 219° Southwest 435 501 30,100 -840 Descending Memphis Center
10:39AM 32.0022 -89.1692 219° Southwest 455 524 29,300 -660 Descending Memphis Center
10:42AM 31.7778 -89.3850 219° Southwest 458 527 27,900 -720 Descending Houston Center
10:43AM 31.6792 -89.4792 219° Southwest 460 529 26,900 -1,020 Descending Houston Center
10:44AM 31.5756 -89.5781 219° Southwest 459 528 25,800 -1,020 Descending Houston Center
10:45AM 31.4775 -89.6703 219° Southwest 456 525 24,800 -1,020 Descending Houston Center
10:46AM 31.3792 -89.7639 219° Southwest 457 526 23,700 -1,740 Descending Houston Center
10:47AM 31.2622 -89.8747 219° Southwest 455 524 21,300 -2,160 Descending Houston Center
10:48AM 31.1692 -89.9636 219° Southwest 438 504 19,300 -1,800 Descending Houston Center
10:49AM 31.0844 -90.0417 218° Southwest 399 459 17,700 -1,680 Descending Houston Center
10:50AM 31.0050 -90.1161 219° Southwest 374 430 15,900 -1,680 Descending Houston Center
10:51AM 30.9283 -90.1881 219° Southwest 358 412 14,200 -1,920 Descending Houston Center
10:52AM 30.8278 -90.2242 197° South 347 399 12,200 -2,040 Descending Houston Center
10:52AM 30.7731 -90.2192 176° South 343 395 11,100 -1,200 Descending Houston Center
10:53AM 30.7300 -90.2169 177° South 338 389 10,900 -120 Descending Houston Center
10:53AM 30.6917 -90.2153 178° South 313 360 11,000 -600 Climbing Houston Center
10:54AM 30.6458 -90.2089 173° South 315 362 10,300 -1,260 Descending Houston Center
10:55AM 30.5867 -90.2003 173° South 287 330 9,400 -1,200 Descending Houston Center
10:55AM 30.5694 -90.1953 166° South 285 328 9,100 -1,320 Descending Houston Center
10:56AM 30.5111 -90.1864 173° South 263 303 8,100 -1,200 Descending Houston Center
10:56AM 30.4978 -90.1833 169° South 266 306 7,900 -1,200 Descending Houston Center
10:57AM 30.4353 -90.1728 172° South 250 288 6,800 -1,500 Descending Houston Center
10:57AM 30.4169 -90.1683 168° South 250 288 6,400 -1,200 Descending Houston Center
10:58AM 30.3703 -90.1608 172° South 244 281 5,600 -1,200 Descending Houston Center
10:58AM 30.3528 -90.1556 165° South 240 276 5,200 -1,140 Descending Houston Center
10:59AM 30.2919 -90.1564 181° South 230 265 4,100 -1,080 Descending Houston Center
10:59AM 30.2742 -90.1600 190° South 211 243 3,800 -1,020 Descending Houston Center
11:00AM 30.2356 -90.1725 196° South 219 252 3,100 -1,080 Descending Houston Center
11:01AM 30.2058 -90.1822 196° South 190 219 2,400 -1,080 Descending Houston Center
11:01AM 30.1864 -90.1869 192° South 201 231 2,000 -540 Descending Houston Center
11:02AM 30.1625 -90.1958 198° South 160 184 1,900 -120 Descending Houston Center
11:02AM 30.1414 -90.2025 195° South 162 186 1,900  Level Houston Center
11:03AM 30.1231 -90.2072 193° South 143 165 1,900  Level Houston Center
11:03AM 30.1017 -90.2153 198° South 152 175 1,900 -420 Level Houston Center
11:04AM 30.0644 -90.2272 196° South 146 168 1,300 -600 Descending Houston Center